createdAt,value
2018-11-28T00:02:17.211Z,76.15
2018-11-28T00:04:47.742Z,76.11
2018-11-28T00:07:17.332Z,75.86
2018-11-28T00:09:46.718Z,76.34
2018-11-28T00:12:16.788Z,77.12
2018-11-28T00:14:46.694Z,76.45
2018-11-28T00:17:17.336Z,77.03
2018-11-28T00:19:48.877Z,77.32
2018-11-28T00:22:18.257Z,77.77
2018-11-28T00:24:51.052Z,77.64
2018-11-28T00:27:21.995Z,78.13
2018-11-28T00:29:52.856Z,78.06
2018-11-28T00:32:23.805Z,78.64
2018-11-28T00:34:53.937Z,77.77
2018-11-28T00:37:23.330Z,78.54
2018-11-28T00:39:54.935Z,78.08
2018-11-28T00:42:31.277Z,78.51
2018-11-28T00:45:02.077Z,77.90
2018-11-28T00:47:32.844Z,77.77
2018-11-28T00:50:02.897Z,78.30
2018-11-28T00:52:35.094Z,78.11
2018-11-28T00:55:08.986Z,78.16
2018-11-28T00:57:41.165Z,79.13
2018-11-28T01:00:16.420Z,78.15
2018-11-28T01:02:48.448Z,78.24
2018-11-28T01:05:18.137Z,78.55
2018-11-28T01:07:53.821Z,78.09
2018-11-28T01:10:26.160Z,77.86
2018-11-28T01:12:56.894Z,77.60
2018-11-28T01:15:26.992Z,76.46
2018-11-28T01:17:58.165Z,76.52
2018-11-28T01:20:29.112Z,75.83
2018-11-28T01:23:10.050Z,76.79
2018-11-28T01:25:42.952Z,76.99
2018-11-28T01:28:16.117Z,75.34
2018-11-28T01:30:50.098Z,76.03
2018-11-28T01:33:21.108Z,75.46
2018-11-28T01:35:53.252Z,76.01
2018-11-28T01:38:24.246Z,75.89
2018-11-28T01:40:55.169Z,75.12
2018-11-28T01:43:27.253Z,75.26
2018-11-28T01:45:59.236Z,76.79
2018-11-28T01:48:29.765Z,77.44
2018-11-28T01:51:00.361Z,77.56
2018-11-28T01:53:30.588Z,77.26
2018-11-28T01:56:01.084Z,77.21
2018-11-28T01:58:30.445Z,76.98
2018-11-28T02:01:02.825Z,76.85
2018-11-28T02:03:36.071Z,77.03
2018-11-28T02:06:06.300Z,77.04
2018-11-28T02:08:40.211Z,78.26
2018-11-28T02:11:13.317Z,77.76
2018-11-28T02:13:44.596Z,78.42
2018-11-28T02:16:14.468Z,78.24
2018-11-28T02:18:45.357Z,77.80
2018-11-28T02:21:16.457Z,75.29
2018-11-28T02:23:47.248Z,75.48
2018-11-28T02:26:21.151Z,76.59
2018-11-28T02:28:54.370Z,76.05
2018-11-28T02:31:24.409Z,76.98
2018-11-28T02:33:58.485Z,76.81
2018-11-28T02:36:30.269Z,77.63
2018-11-28T02:39:03.533Z,78.22
2018-11-28T02:41:34.489Z,77.72
2018-11-28T02:44:06.403Z,78.55
2018-11-28T02:46:38.420Z,77.86
2018-11-28T02:49:09.506Z,78.03
2018-11-28T02:51:39.478Z,78.24
2018-11-28T02:54:13.198Z,76.58
2018-11-28T02:56:43.401Z,76.26
2018-11-28T02:59:17.686Z,77.26
2018-11-28T03:01:48.190Z,77.99
2018-11-28T03:04:17.693Z,77.32
2018-11-28T03:06:49.357Z,77.32
2018-11-28T03:09:20.027Z,78.40
2018-11-28T03:11:50.810Z,77.48
2018-11-28T03:14:20.946Z,77.55
2018-11-28T03:16:51.590Z,76.91
2018-11-28T03:19:21.717Z,75.83
2018-11-28T03:21:52.681Z,74.55
2018-11-28T03:24:23.681Z,75.47
2018-11-28T03:26:54.325Z,75.91
2018-11-28T03:29:25.171Z,76.52
2018-11-28T03:31:55.827Z,76.58
2018-11-28T03:34:26.358Z,77.19
2018-11-28T03:37:05.672Z,77.52
2018-11-28T03:39:37.589Z,77.05
2018-11-28T03:42:13.557Z,77.94
2018-11-28T03:44:44.613Z,78.19
2018-11-28T03:47:14.900Z,77.88
2018-11-28T03:49:45.870Z,77.94
2018-11-28T03:52:16.858Z,77.90
2018-11-28T03:54:47.577Z,77.97
2018-11-28T03:57:17.761Z,77.80
2018-11-28T03:59:48.653Z,78.75
2018-11-28T04:02:18.054Z,78.97
2018-11-28T04:04:52.576Z,78.31
2018-11-28T04:07:31.706Z,78.92
2018-11-28T04:10:03.253Z,79.30
2018-11-28T04:12:32.749Z,78.71
2018-11-28T04:15:03.887Z,79.01
2018-11-28T04:17:34.870Z,78.66
2018-11-28T04:20:06.938Z,78.73
2018-11-28T04:22:36.998Z,78.46
2018-11-28T04:25:08.069Z,79.19
2018-11-28T04:27:40.684Z,78.64
2018-11-28T04:30:17.779Z,78.93
2018-11-28T04:32:48.545Z,79.13
2018-11-28T04:35:18.090Z,78.78
2018-11-28T04:37:48.959Z,79.42
2018-11-28T04:40:19.310Z,78.98
2018-11-28T04:42:50.321Z,78.36
2018-11-28T04:45:25.345Z,79.42
2018-11-28T04:47:55.794Z,79.44
2018-11-28T04:50:29.867Z,79.10
2018-11-28T04:53:06.605Z,79.97
2018-11-28T04:55:36.161Z,79.92
2018-11-28T04:58:07.174Z,79.99
2018-11-28T05:00:38.393Z,79.76
2018-11-28T05:03:08.456Z,78.06
2018-11-28T05:05:39.153Z,79.52
2018-11-28T05:08:14.117Z,79.13
2018-11-28T05:10:46.241Z,78.48
2018-11-28T05:13:17.923Z,79.12
2018-11-28T05:15:48.161Z,79.15
2018-11-28T05:18:17.743Z,76.43
2018-11-28T05:20:53.996Z,77.98
2018-11-28T05:23:28.422Z,77.37
2018-11-28T05:25:59.245Z,76.73
2018-11-28T05:28:29.177Z,78.47
2018-11-28T05:31:01.201Z,76.78
2018-11-28T05:33:31.281Z,75.76
2018-11-28T05:36:01.243Z,78.89
2018-11-28T05:38:31.338Z,77.72
2018-11-28T05:41:03.327Z,78.71
2018-11-28T05:43:33.104Z,78.45
2018-11-28T05:46:10.093Z,78.94
2018-11-28T05:48:44.011Z,78.62
2018-11-28T05:51:14.311Z,78.24
2018-11-28T05:53:48.339Z,78.70
2018-11-28T05:56:18.045Z,78.66
2018-11-28T05:58:50.119Z,78.54
2018-11-28T06:01:20.624Z,78.39
2018-11-28T06:03:51.274Z,78.11
2018-11-28T06:06:21.521Z,78.63
2018-11-28T06:08:53.318Z,80.05
2018-11-28T06:11:23.797Z,79.50
2018-11-28T06:13:54.289Z,79.92
2018-11-28T06:16:27.448Z,79.88
2018-11-28T06:18:58.478Z,79.19
2018-11-28T06:21:28.609Z,78.96
2018-11-28T06:23:59.561Z,79.34
2018-11-28T06:26:30.496Z,79.07
2018-11-28T06:29:00.500Z,78.91
2018-11-28T06:31:31.572Z,78.81
2018-11-28T06:34:01.598Z,78.99
2018-11-28T06:36:32.624Z,78.45
2018-11-28T06:39:02.581Z,78.47
2018-11-28T06:41:33.421Z,78.32
2018-11-28T06:44:04.690Z,78.12
2018-11-28T06:46:35.608Z,78.06
2018-11-28T06:49:05.721Z,77.57
2018-11-28T06:51:36.688Z,76.78
2018-11-28T06:54:06.483Z,77.34
2018-11-28T06:56:37.620Z,76.02
2018-11-28T06:59:08.793Z,77.31
2018-11-28T07:01:39.710Z,77.93
2018-11-28T07:04:09.739Z,76.73
2018-11-28T07:06:40.906Z,77.37
2018-11-28T07:09:11.476Z,76.79
2018-11-28T07:11:45.460Z,78.25
2018-11-28T07:14:16.640Z,77.29
2018-11-28T07:16:48.200Z,78.39
2018-11-28T07:19:17.950Z,77.14
2018-11-28T07:21:48.558Z,77.57
2018-11-28T07:24:18.016Z,77.05
2018-11-28T07:26:49.717Z,77.56
2018-11-28T07:29:21.691Z,78.19
2018-11-28T07:31:53.779Z,77.55
2018-11-28T07:34:24.720Z,78.04
2018-11-28T07:37:00.671Z,77.78
2018-11-28T07:39:30.686Z,78.11
2018-11-28T07:42:02.518Z,77.74
2018-11-28T07:44:33.300Z,77.40
2018-11-28T07:47:03.981Z,76.84
2018-11-28T07:49:34.641Z,76.58
2018-11-28T07:52:04.982Z,76.67
2018-11-28T07:54:35.831Z,76.41
2018-11-28T07:57:06.802Z,74.57
2018-11-28T07:59:37.501Z,75.61
2018-11-28T08:02:07.797Z,75.58
2018-11-28T08:04:47.938Z,73.08
2018-11-28T08:07:17.993Z,71.62
2018-11-28T08:09:47.880Z,72.95
2018-11-28T08:12:21.778Z,71.63
2018-11-28T08:14:52.972Z,69.78
2018-11-28T08:17:25.143Z,70.15
2018-11-28T08:19:56.703Z,71.33
2018-11-28T08:22:31.931Z,70.55
2018-11-28T08:25:03.067Z,69.74
2018-11-28T08:27:38.938Z,70.78
2018-11-28T08:30:17.810Z,70.64
2018-11-28T08:32:52.071Z,71.55
2018-11-28T08:35:21.930Z,70.70
2018-11-28T08:37:56.833Z,72.01
2018-11-28T08:40:28.071Z,70.83
2018-11-28T08:42:58.555Z,68.66
2018-11-28T08:45:27.965Z,69.84
2018-11-28T08:47:59.536Z,69.98
2018-11-28T08:50:30.869Z,70.25
2018-11-28T08:53:03.163Z,70.07
2018-11-28T08:55:34.193Z,69.25
2018-11-28T08:58:05.068Z,68.54
2018-11-28T09:00:36.211Z,69.46
2018-11-28T09:03:06.627Z,68.68
2018-11-28T09:05:38.170Z,68.81
2018-11-28T09:08:15.955Z,68.24
2018-11-28T09:10:50.147Z,67.22
2018-11-28T09:13:21.244Z,67.31
2018-11-28T09:15:51.365Z,66.41
2018-11-28T09:18:24.108Z,67.52
2018-11-28T09:20:58.089Z,66.01
2018-11-28T09:23:29.832Z,67.11
2018-11-28T09:26:00.358Z,68.32
2018-11-28T09:28:41.400Z,67.30
2018-11-28T09:31:22.690Z,66.41
2018-11-28T09:34:09.977Z,63.90
2018-11-28T09:36:56.702Z,65.26
2018-11-28T09:39:41.823Z,67.41
2018-11-28T09:42:25.915Z,64.56
2018-11-28T09:45:12.161Z,64.62
2018-11-28T09:47:57.826Z,63.93
2018-11-28T09:50:44.266Z,60.65
2018-11-28T09:53:19.596Z,62.56
2018-11-28T09:55:50.293Z,60.85
2018-11-28T09:58:21.511Z,62.83
2018-11-28T10:00:51.410Z,62.84
2018-11-28T10:03:21.452Z,61.27
2018-11-28T10:05:53.559Z,61.05
2018-11-28T10:08:24.623Z,60.00
2018-11-28T10:10:54.540Z,59.99
2018-11-28T10:13:35.032Z,59.93
2018-11-28T10:16:18.876Z,58.70
2018-11-28T10:18:54.086Z,57.67
2018-11-28T10:21:24.556Z,58.35
2018-11-28T10:23:55.522Z,58.35
2018-11-28T10:26:27.530Z,58.35
2018-11-28T10:28:57.624Z,57.85
2018-11-28T10:31:28.529Z,56.59
2018-11-28T10:33:58.562Z,54.47
2018-11-28T10:36:30.196Z,55.68
2018-11-28T10:39:08.917Z,55.10
2018-11-28T10:41:39.802Z,53.21
2018-11-28T10:44:10.719Z,53.76
2018-11-28T10:46:43.458Z,54.54
2018-11-28T10:49:14.656Z,53.21
2018-11-28T10:51:50.200Z,53.67
2018-11-28T10:54:15.627Z,52.29
2018-11-28T10:56:46.774Z,52.46
2018-11-28T10:59:16.679Z,53.06
2018-11-28T11:01:56.806Z,53.26
2018-11-28T11:04:31.712Z,53.50
2018-11-28T11:07:09.713Z,52.24
2018-11-28T11:11:51.664Z,52.10
2018-11-28T11:14:26.962Z,53.07
2018-11-28T11:16:57.635Z,51.80
2018-11-28T11:19:27.756Z,51.61
2018-11-28T11:21:59.698Z,49.44
2018-11-28T11:24:33.354Z,50.17
2018-11-28T11:27:03.925Z,50.82
2018-11-28T11:29:35.078Z,48.93
2018-11-28T11:32:06.128Z,49.31
2018-11-28T11:34:36.817Z,50.04
2018-11-28T11:37:07.692Z,49.39
2018-11-28T11:39:40.914Z,50.87
2018-11-28T11:42:12.011Z,50.16
2018-11-28T11:44:41.920Z,50.83
2018-11-28T11:47:13.024Z,49.62
2018-11-28T11:49:43.086Z,50.23
2018-11-28T11:52:16.829Z,49.89
2018-11-28T11:54:47.841Z,49.88
2018-11-28T11:57:18.065Z,47.91
2018-11-28T11:59:49.053Z,48.88
2018-11-28T12:02:18.593Z,49.73
2018-11-28T12:04:49.942Z,48.44
2018-11-28T12:07:22.365Z,48.59
2018-11-28T12:09:52.014Z,49.99
2018-11-28T12:12:28.331Z,49.47
2018-11-28T12:15:02.083Z,49.97
2018-11-28T12:17:33.823Z,48.87
2018-11-28T12:20:08.876Z,49.63
2018-11-28T12:22:38.280Z,49.29
2018-11-28T12:25:12.404Z,47.83
2018-11-28T12:27:49.621Z,46.48
2018-11-28T12:30:19.915Z,47.83
2018-11-28T12:32:53.047Z,47.96
2018-11-28T12:35:24.170Z,48.26
2018-11-28T12:37:54.068Z,49.18
2018-11-28T12:40:31.614Z,47.62
2018-11-28T12:43:01.545Z,48.29
2018-11-28T12:45:32.206Z,49.65
2018-11-28T12:48:07.697Z,47.15
2018-11-28T12:50:43.397Z,46.26
2018-11-28T12:53:14.701Z,48.49
2018-11-28T12:55:50.830Z,48.66
2018-11-28T12:58:25.968Z,47.97
2018-11-28T13:00:57.247Z,47.77
2018-11-28T13:03:27.592Z,47.57
2018-11-28T13:08:59.069Z,48.33
2018-11-28T13:11:35.255Z,45.95
2018-11-28T13:14:06.637Z,49.66
2018-11-28T13:16:36.311Z,50.50
2018-11-28T13:19:11.089Z,49.13
2018-11-28T13:21:44.246Z,50.21
2018-11-28T13:24:17.145Z,50.82
2018-11-28T13:26:51.259Z,49.10
2018-11-28T13:29:22.182Z,48.79
2018-11-28T13:31:53.234Z,49.10
2018-11-28T13:34:28.096Z,49.62
2018-11-28T13:37:07.640Z,50.74
2018-11-28T13:39:38.425Z,51.25
2018-11-28T13:42:09.975Z,52.19
2018-11-28T13:44:41.331Z,51.81
2018-11-28T13:47:16.478Z,49.67
2018-11-28T13:49:46.265Z,49.82
2018-11-28T13:52:17.334Z,50.05
2018-11-28T13:55:37.341Z,48.73
2018-11-28T13:57:18.660Z,49.59
2018-11-28T13:59:48.379Z,48.83
2018-11-28T14:02:25.186Z,49.34
2018-11-28T14:04:55.612Z,50.32
2018-11-28T14:07:27.455Z,51.62
2018-11-28T14:09:59.563Z,52.42
2018-11-28T14:12:30.628Z,54.00
2018-11-28T14:15:00.724Z,54.16
2018-11-28T14:17:31.698Z,55.77
2018-11-28T14:20:01.545Z,55.92
2018-11-28T14:22:35.466Z,58.28
2018-11-28T14:25:06.096Z,59.08
2018-11-28T14:27:36.575Z,59.80
2018-11-28T14:30:22.166Z,60.17
2018-11-28T14:32:54.665Z,61.37
2018-11-28T14:35:26.700Z,61.91
2018-11-28T14:37:57.720Z,63.21
2018-11-28T14:40:28.032Z,63.21
2018-11-28T14:42:59.627Z,63.86
2018-11-28T14:45:32.372Z,64.54
2018-11-28T14:48:03.013Z,65.30
2018-11-28T14:50:36.457Z,64.79
2018-11-28T14:53:06.790Z,65.28
2018-11-28T14:55:39.811Z,66.21
2018-11-28T14:58:12.969Z,66.64
2018-11-28T15:00:44.192Z,67.02
2018-11-28T15:03:21.256Z,66.78
2018-11-28T15:06:10.988Z,67.51
2018-11-28T15:08:42.789Z,67.52
2018-11-28T15:11:16.330Z,67.79
2018-11-28T15:13:52.688Z,67.16
2018-11-28T15:16:33.839Z,68.04
2018-11-28T15:19:03.990Z,68.14
2018-11-28T15:21:35.292Z,68.64
2018-11-28T15:24:06.076Z,67.11
2018-11-28T15:26:36.021Z,67.38
2018-11-28T15:29:06.583Z,68.27
2018-11-28T15:31:37.603Z,67.56
2018-11-28T15:34:13.809Z,68.89
2018-11-28T15:36:44.045Z,68.93
2018-11-28T15:39:15.565Z,68.07
2018-11-28T15:41:54.684Z,69.30
2018-11-28T15:44:25.506Z,69.79
2018-11-28T15:46:59.153Z,69.74
2018-11-28T15:49:29.536Z,69.84
2018-11-28T15:52:07.232Z,70.13
2018-11-28T15:54:37.260Z,70.10
2018-11-28T15:57:07.425Z,70.57
2018-11-28T15:59:40.181Z,71.03
2018-11-28T16:02:12.045Z,70.59
2018-11-28T16:04:42.181Z,71.20
2018-11-28T16:07:13.115Z,71.09
2018-11-28T16:10:48.890Z,71.10
2018-11-28T16:13:19.121Z,72.15
2018-11-28T16:15:54.580Z,71.78
2018-11-28T16:18:33.099Z,71.73
2018-11-28T16:21:05.906Z,71.57
2018-11-28T16:23:43.047Z,71.57
2018-11-28T16:26:17.990Z,71.94
2018-11-28T16:28:49.145Z,71.56
2018-11-28T16:31:19.395Z,71.26
2018-11-28T16:33:50.588Z,71.79
2018-11-28T16:36:22.385Z,71.41
2018-11-28T16:38:54.152Z,71.59
2018-11-28T16:41:25.477Z,71.28
2018-11-28T16:43:56.921Z,71.56
2018-11-28T16:46:35.283Z,70.64
2018-11-28T16:49:06.505Z,69.91
2018-11-28T16:51:39.556Z,70.37
2018-11-28T16:54:14.870Z,70.42
2018-11-28T16:56:50.617Z,70.27
2018-11-28T16:59:23.525Z,70.39
2018-11-28T17:01:59.705Z,70.18
2018-11-28T17:04:33.143Z,71.30
2018-11-28T17:07:09.237Z,70.24
2018-11-28T17:09:43.037Z,69.95
2018-11-28T17:12:14.593Z,70.85
2018-11-28T17:14:44.377Z,70.22
2018-11-28T17:17:15.506Z,70.45
2018-11-28T17:19:45.313Z,70.61
2018-11-28T17:22:16.244Z,71.15
2018-11-28T17:24:47.768Z,71.00
2018-11-28T17:27:19.260Z,70.13
2018-11-28T17:29:52.827Z,70.44
2018-11-28T17:32:22.560Z,69.74
2018-11-28T17:34:56.778Z,69.88
2018-11-28T17:37:29.788Z,70.15
2018-11-28T17:40:17.374Z,70.25
2018-11-28T17:42:49.889Z,70.64
2018-11-28T17:45:20.122Z,70.59
2018-11-28T17:47:49.948Z,70.00
2018-11-28T17:50:21.429Z,69.68
2018-11-28T17:52:56.342Z,69.07
2018-11-28T17:55:29.410Z,70.12
2018-11-28T17:58:01.633Z,70.35
2018-11-28T18:00:31.532Z,69.58
2018-11-28T18:03:02.591Z,70.47
2018-11-28T18:05:32.504Z,70.44
2018-11-28T18:08:06.567Z,70.56
2018-11-28T18:10:36.784Z,69.96
2018-11-28T18:13:12.482Z,70.19
2018-11-28T18:15:54.930Z,70.67
2018-11-28T18:18:26.419Z,70.32
2018-11-28T18:20:55.805Z,70.55
2018-11-28T18:23:27.081Z,70.79
2018-11-28T18:25:58.813Z,70.44
2018-11-28T18:28:29.738Z,69.72
2018-11-28T18:31:00.694Z,69.89
2018-11-28T18:33:31.421Z,69.96
2018-11-28T18:36:06.561Z,69.82
2018-11-28T18:38:44.452Z,70.55
2018-11-28T18:41:19.480Z,70.89
2018-11-28T18:43:53.578Z,70.71
2018-11-28T18:46:25.383Z,70.41
2018-11-28T18:48:59.474Z,70.13
2018-11-28T18:51:29.693Z,70.18
2018-11-28T18:54:02.665Z,70.63
2018-11-28T18:56:39.687Z,70.31
2018-11-28T18:59:09.662Z,70.31
2018-11-28T19:01:48.404Z,69.84
2018-11-28T19:04:15.494Z,70.22
2018-11-28T19:06:45.345Z,69.98
2018-11-28T19:09:20.172Z,70.27
2018-11-28T19:11:56.177Z,69.56
2018-11-28T19:14:28.100Z,69.79
2018-11-28T19:16:59.780Z,69.62
2018-11-28T19:19:29.561Z,70.41
2018-11-28T19:22:06.861Z,69.83
2018-11-28T19:24:39.941Z,70.25
2018-11-28T19:27:10.370Z,70.41
2018-11-28T19:29:41.173Z,69.31
2018-11-28T19:32:15.710Z,70.57
2018-11-28T19:34:45.171Z,70.10
2018-11-28T19:37:16.918Z,71.24
2018-11-28T19:39:47.092Z,70.11
2018-11-28T19:42:18.001Z,70.47
2018-11-28T19:44:48.053Z,70.70
2018-11-28T19:47:19.105Z,70.64
2018-11-28T19:49:50.136Z,70.40
2018-11-28T19:52:19.646Z,69.53
2018-11-28T19:54:51.066Z,69.65
2018-11-28T19:57:22.365Z,70.39
2018-11-28T19:59:53.441Z,70.39
2018-11-28T20:02:25.213Z,70.45
2018-11-28T20:04:58.341Z,70.08
2018-11-28T20:07:28.307Z,70.87
2018-11-28T20:09:58.259Z,70.57
2018-11-28T20:12:28.856Z,70.03
2018-11-28T20:15:02.249Z,70.28
2018-11-28T20:17:33.731Z,70.61
2018-11-28T20:20:05.973Z,70.68
2018-11-28T20:22:46.648Z,70.94
2018-11-28T20:25:22.943Z,71.23
2018-11-28T20:27:57.168Z,71.63
2018-11-28T20:30:33.722Z,72.01
2018-11-28T20:33:03.609Z,71.42
2018-11-28T20:35:34.391Z,70.79
2018-11-28T20:38:04.578Z,70.97
2018-11-28T20:40:35.444Z,70.77
2018-11-28T20:43:06.718Z,71.77
2018-11-28T20:45:36.725Z,71.49
2018-11-28T20:48:07.518Z,71.11
2018-11-28T20:50:38.593Z,69.30
2018-11-28T20:53:13.296Z,71.80
2018-11-28T20:55:44.004Z,71.83
2018-11-28T20:58:17.320Z,72.15
2018-11-28T21:00:54.240Z,72.46
2018-11-28T21:03:26.429Z,72.35
2018-11-28T21:05:58.240Z,71.72
2018-11-28T21:17:23.369Z,71.36
2018-11-28T21:19:55.405Z,71.88
2018-11-28T21:22:25.511Z,71.86
2018-11-28T21:24:56.451Z,72.06
2018-11-28T21:27:26.568Z,72.49
2018-11-28T21:29:57.566Z,71.07
2018-11-28T21:32:28.807Z,72.77
2018-11-28T21:34:58.585Z,72.54
2018-11-28T21:37:29.752Z,72.22
2018-11-28T21:39:59.641Z,71.85
2018-11-28T21:42:30.373Z,72.18
2018-11-28T21:45:01.630Z,71.82
2018-11-28T21:47:31.469Z,71.66
2018-11-28T21:50:03.040Z,71.55
2018-11-28T21:52:37.614Z,71.75
2018-11-28T21:55:17.131Z,71.25
2018-11-28T21:57:49.753Z,71.30
2018-11-28T22:00:26.279Z,71.71
2018-11-28T22:02:59.461Z,71.54
2018-11-28T22:05:30.934Z,72.00
2018-11-28T22:08:01.694Z,71.84
2018-11-28T22:10:32.720Z,72.23
2018-11-28T22:13:03.606Z,71.75
2018-11-28T22:15:34.334Z,70.80
2018-11-28T22:18:04.862Z,69.46
2018-11-28T22:20:35.565Z,70.31
2018-11-28T22:23:05.748Z,72.32
2018-11-28T22:25:36.625Z,71.42
2018-11-28T22:28:07.412Z,72.35
2018-11-28T22:30:37.768Z,72.47
2018-11-28T22:33:08.057Z,72.38
2018-11-28T22:35:38.941Z,72.03
2018-11-28T22:38:09.420Z,71.86
2018-11-28T22:40:39.837Z,71.20
2018-11-28T22:43:10.685Z,71.37
2018-11-28T22:45:40.965Z,70.30
2018-11-28T22:48:11.961Z,72.42
2018-11-28T22:50:42.962Z,71.86
2018-11-28T22:53:12.901Z,70.44
2018-11-28T22:55:45.408Z,71.26
2018-11-28T22:58:14.796Z,70.87
2018-11-28T23:00:50.962Z,71.11
2018-11-28T23:03:23.001Z,71.08
2018-11-28T23:05:55.210Z,71.04
2018-11-28T23:08:25.944Z,70.82
2018-11-28T23:10:56.877Z,71.52
2018-11-28T23:13:33.840Z,71.66
2018-11-28T23:16:07.732Z,71.65
2018-11-28T23:18:37.889Z,71.39
2018-11-28T23:21:09.068Z,71.05
2018-11-28T23:23:40.178Z,71.06
2018-11-28T23:26:10.956Z,71.30
2018-11-28T23:28:41.051Z,71.10
2018-11-28T23:31:12.553Z,71.29
2018-11-28T23:33:42.014Z,71.43
2018-11-28T23:36:13.160Z,70.79
2018-11-28T23:38:43.060Z,71.19
2018-11-28T23:41:13.909Z,71.36
2018-11-28T23:43:44.088Z,71.35
2018-11-28T23:46:17.913Z,71.88
2018-11-28T23:49:03.029Z,70.79
2018-11-28T23:51:32.410Z,72.43
2018-11-28T23:54:02.249Z,71.53
2018-11-28T23:56:33.188Z,71.76
2018-11-28T23:59:03.271Z,71.44
